sensor_id;sensor_type;location;lat;lon;timestamp;pressure;altitude;pressure_sealevel;temperature
68342;BMP280;55668;52.310;21.066;2023-02-28T00:08:21;102290.0;;;-1.5
68342;BMP280;55668;52.310;21.066;2023-02-28T00:39:11;102310.0;;;-1.7
68342;BMP280;55668;52.310;21.066;2023-02-28T00:52:24;102310.0;;;-1.8
68342;BMP280;55668;52.310;21.066;2023-02-28T01:13:31;102300.0;;;-1.6
68342;BMP280;55668;52.310;21.066;2023-02-28T01:23:01;102300.0;;;-1.8
68342;BMP280;55668;52.310;21.066;2023-02-28T01:37:22;102310.0;;;-1.9
68342;BMP280;55668;52.310;21.066;2023-02-28T01:53:45;102310.0;;;-2.1
68342;BMP280;55668;52.310;21.066;2023-02-28T02:14:55;102310.0;;;-2.4
68342;BMP280;55668;52.310;21.066;2023-02-28T02:41:13;102310.0;;;-2.4
68342;BMP280;55668;52.310;21.066;2023-02-28T03:11:34;102320.0;;;-2.6
68342;BMP280;55668;52.310;21.066;2023-02-28T03:32:11;102320.0;;;-2.7
68342;BMP280;55668;52.310;21.066;2023-02-28T03:40:02;102340.0;;;-2.6
68342;BMP280;55668;52.310;21.066;2023-02-28T03:55:56;102340.0;;;-3.0
68342;BMP280;55668;52.310;21.066;2023-02-28T04:26:10;102330.0;;;-2.9
68342;BMP280;55668;52.310;21.066;2023-02-28T04:57:35;102350.0;;;-3.0
68342;BMP280;55668;52.310;21.066;2023-02-28T05:14:44;102360.0;;;-2.8
68342;BMP280;55668;52.310;21.066;2023-02-28T05:30:18;102390.0;;;-3.0
68342;BMP280;55668;52.310;21.066;2023-02-28T06:00:24;102420.0;;;-2.9
68342;BMP280;55668;52.310;21.066;2023-02-28T06:16:15;102430.0;;;-2.7
68342;BMP280;55668;52.310;21.066;2023-02-28T06:29:06;102430.0;;;-2.6
68342;BMP280;55668;52.310;21.066;2023-02-28T06:45:07;102400.0;;;-2.2
68342;BMP280;55668;52.310;21.066;2023-02-28T07:02:16;102390.0;;;-1.9
68342;BMP280;55668;52.310;21.066;2023-02-28T07:33:17;102370.0;;;-0.2
68342;BMP280;55668;52.310;21.066;2023-02-28T08:18:17;102390.0;;;1.1
68342;BMP280;55668;52.310;21.066;2023-02-28T08:34:35;102390.0;;;1.3
68342;BMP280;55668;52.310;21.066;2023-02-28T08:49:58;102400.0;;;1.1
68342;BMP280;55668;52.310;21.066;2023-02-28T09:05:54;102400.0;;;0.9
68342;BMP280;55668;52.310;21.066;2023-02-28T09:18:44;102409.99999999999;;;0.8
68342;BMP280;55668;52.310;21.066;2023-02-28T09:40:26;102400.0;;;0.9
68342;BMP280;55668;52.310;21.066;2023-02-28T09:49:04;102400.0;;;1.4
68342;BMP280;55668;52.310;21.066;2023-02-28T10:21:26;102409.99999999999;;;1.3
68342;BMP280;55668;52.310;21.066;2023-02-28T10:36:18;102400.0;;;1.2
68342;BMP280;55668;52.310;21.066;2023-02-28T10:52:07;102380.0;;;1.6
68342;BMP280;55668;52.310;21.066;2023-02-28T11:12:49;102350.0;;;1.9
68342;BMP280;55668;52.310;21.066;2023-02-28T11:52:45;102300.0;;;2.2
68342;BMP280;55668;52.310;21.066;2023-02-28T12:39:10;102270.0;;;2.3
68342;BMP280;55668;52.310;21.066;2023-02-28T13:08:46;102240.0;;;2.4
68342;BMP280;55668;52.310;21.066;2023-02-28T13:59:46;102190.0;;;2.6
68342;BMP280;55668;52.310;21.066;2023-02-28T14:29:51;102160.0;;;2.5
68342;BMP280;55668;52.310;21.066;2023-02-28T14:42:27;102150.0;;;2.6
68342;BMP280;55668;52.310;21.066;2023-02-28T15:27:49;102140.0;;;2.3
68342;BMP280;55668;52.310;21.066;2023-02-28T15:48:17;102140.0;;;2.1
68342;BMP280;55668;52.310;21.066;2023-02-28T16:18:28;102150.0;;;1.8
68342;BMP280;55668;52.310;21.066;2023-02-28T17:02:10;102180.0;;;1.1
68342;BMP280;55668;52.310;21.066;2023-02-28T17:45:16;102180.0;;;0.6
68342;BMP280;55668;52.310;21.066;2023-02-28T18:02:43;102160.0;;;0.4
68342;BMP280;55668;52.310;21.066;2023-02-28T18:16:29;102140.0;;;0.3
68342;BMP280;55668;52.310;21.066;2023-02-28T18:48:37;102120.0;;;0.1
68342;BMP280;55668;52.310;21.066;2023-02-28T19:16:50;102150.0;;;-0.1
68342;BMP280;55668;52.310;21.066;2023-02-28T19:51:21;102170.0;;;-0.3
68342;BMP280;55668;52.310;21.066;2023-02-28T20:19:05;102180.0;;;-0.4
68342;BMP280;55668;52.310;21.066;2023-02-28T20:35:25;102150.0;;;-0.7
68342;BMP280;55668;52.310;21.066;2023-02-28T20:50:09;102160.0;;;-0.6
68342;BMP280;55668;52.310;21.066;2023-02-28T21:04:37;102150.0;;;-0.8
68342;BMP280;55668;52.310;21.066;2023-02-28T21:20:00;102150.0;;;-0.7
68342;BMP280;55668;52.310;21.066;2023-02-28T21:35:27;102150.0;;;-0.9
68342;BMP280;55668;52.310;21.066;2023-02-28T21:51:25;102150.0;;;-1.0
68342;BMP280;55668;52.310;21.066;2023-02-28T22:09:15;102140.0;;;-1.1
68342;BMP280;55668;52.310;21.066;2023-02-28T22:36:43;102110.0;;;-1.2
68342;BMP280;55668;52.310;21.066;2023-02-28T23:09:16;102140.0;;;-1.1
68342;BMP280;55668;52.310;21.066;2023-02-28T23:28:12;102120.0;;;-1.3
68342;BMP280;55668;52.310;21.066;2023-02-28T23:53:38;102140.0;;;-1.2
